sensor_id;sensor_type;location;lat;lon;timestamp;pressure;altitude;pressure_sealevel;temperature;humidity
141;BME280;65;48.778;9.160;2023-09-19T00:02:22;98087.22;;;17.68;100.00
141;BME280;65;48.778;9.160;2023-09-19T00:05:07;98097.19;;;17.66;100.00
141;BME280;65;48.778;9.160;2023-09-19T00:07:56;98096.78;;;17.61;100.00
141;BME280;65;48.778;9.160;2023-09-19T00:10:43;98110.84;;;17.63;100.00
141;BME280;65;48.778;9.160;2023-09-19T00:13:29;98113.94;;;17.68;100.00
141;BME280;65;48.778;9.160;2023-09-19T00:16:16;98117.19;;;17.72;100.00
141;BME280;65;48.778;9.160;2023-09-19T00:19:04;98119.56;;;17.65;100.00
141;BME280;65;48.778;9.160;2023-09-19T00:21:54;98119.28;;;17.58;100.00
141;BME280;65;48.778;9.160;2023-09-19T00:24:40;98131.09;;;17.56;100.00
141;BME280;65;48.778;9.160;2023-09-19T00:27:26;98134.22;;;17.42;100.00
141;BME280;65;48.778;9.160;2023-09-19T00:30:13;98134.63;;;17.56;100.00
141;BME280;65;48.778;9.160;2023-09-19T00:33:05;98137.59;;;17.44;100.00
141;BME280;65;48.778;9.160;2023-09-19T00:36:12;98139.28;;;17.35;100.00
141;BME280;65;48.778;9.160;2023-09-19T00:39:03;98137.03;;;17.40;100.00
141;BME280;65;48.778;9.160;2023-09-19T00:41:50;98145.00;;;17.30;100.00
141;BME280;65;48.778;9.160;2023-09-19T00:44:36;98145.19;;;17.38;100.00
141;BME280;65;48.778;9.160;2023-09-19T00:47:22;98143.50;;;17.37;100.00
141;BME280;65;48.778;9.160;2023-09-19T00:50:08;98143.34;;;17.39;100.00
141;BME280;65;48.778;9.160;2023-09-19T00:52:56;98146.13;;;17.28;100.00
141;BME280;65;48.778;9.160;2023-09-19T00:55:42;98157.84;;;17.36;100.00
141;BME280;65;48.778;9.160;2023-09-19T00:58:28;98157.81;;;17.27;100.00
141;BME280;65;48.778;9.160;2023-09-19T01:01:19;98162.44;;;17.25;100.00
141;BME280;65;48.778;9.160;2023-09-19T01:04:06;98160.59;;;17.25;100.00
141;BME280;65;48.778;9.160;2023-09-19T01:06:52;98161.88;;;17.21;100.00
141;BME280;65;48.778;9.160;2023-09-19T01:09:38;98159.75;;;17.25;100.00
141;BME280;65;48.778;9.160;2023-09-19T01:12:48;98162.31;;;17.26;100.00
141;BME280;65;48.778;9.160;2023-09-19T01:18:52;98169.31;;;17.18;100.00
141;BME280;65;48.778;9.160;2023-09-19T01:21:44;98163.84;;;17.19;100.00
141;BME280;65;48.778;9.160;2023-09-19T01:28:34;98178.31;;;17.17;100.00
141;BME280;65;48.778;9.160;2023-09-19T01:31:28;98173.81;;;17.17;100.00
141;BME280;65;48.778;9.160;2023-09-19T01:34:17;98181.56;;;17.20;100.00
141;BME280;65;48.778;9.160;2023-09-19T01:37:03;98176.91;;;17.22;100.00
141;BME280;65;48.778;9.160;2023-09-19T01:39:53;98177.19;;;17.29;100.00
141;BME280;65;48.778;9.160;2023-09-19T01:42:56;98179.44;;;17.33;100.00
141;BME280;65;48.778;9.160;2023-09-19T01:49:11;98180.91;;;17.37;100.00
141;BME280;65;48.778;9.160;2023-09-19T01:52:09;98180.06;;;17.47;100.00
141;BME280;65;48.778;9.160;2023-09-19T01:55:06;98182.31;;;17.42;100.00
141;BME280;65;48.778;9.160;2023-09-19T01:58:01;98186.09;;;17.49;100.00
141;BME280;65;48.778;9.160;2023-09-19T02:00:51;98184.41;;;17.38;100.00
141;BME280;65;48.778;9.160;2023-09-19T02:03:38;98200.31;;;17.39;100.00
141;BME280;65;48.778;9.160;2023-09-19T02:06:25;98202.28;;;17.37;100.00
141;BME280;65;48.778;9.160;2023-09-19T02:09:11;98202.09;;;17.29;100.00
141;BME280;65;48.778;9.160;2023-09-19T02:11:56;98202.78;;;17.22;100.00
141;BME280;65;48.778;9.160;2023-09-19T02:14:42;98203.06;;;17.19;100.00
141;BME280;65;48.778;9.160;2023-09-19T02:17:28;98208.09;;;17.12;100.00
141;BME280;65;48.778;9.160;2023-09-19T02:20:13;98213.31;;;17.14;100.00
141;BME280;65;48.778;9.160;2023-09-19T02:23:02;98212.31;;;17.05;100.00
141;BME280;65;48.778;9.160;2023-09-19T02:25:55;98211.16;;;16.98;100.00
141;BME280;65;48.778;9.160;2023-09-19T02:28:42;98215.53;;;16.99;100.00
141;BME280;65;48.778;9.160;2023-09-19T02:31:28;98211.16;;;16.98;100.00
141;BME280;65;48.778;9.160;2023-09-19T02:34:15;98215.91;;;16.85;100.00
141;BME280;65;48.778;9.160;2023-09-19T02:37:05;98214.09;;;16.85;100.00
141;BME280;65;48.778;9.160;2023-09-19T02:39:51;98218.16;;;16.80;100.00
141;BME280;65;48.778;9.160;2023-09-19T02:42:37;98217.34;;;16.89;100.00
141;BME280;65;48.778;9.160;2023-09-19T02:45:22;98228.69;;;16.81;100.00
141;BME280;65;48.778;9.160;2023-09-19T02:48:09;98221.47;;;16.72;100.00
141;BME280;65;48.778;9.160;2023-09-19T02:50:57;98226.22;;;16.68;100.00
141;BME280;65;48.778;9.160;2023-09-19T02:53:43;98238.19;;;16.53;100.00
141;BME280;65;48.778;9.160;2023-09-19T02:56:29;98239.53;;;16.38;100.00
141;BME280;65;48.778;9.160;2023-09-19T02:59:16;98243.09;;;16.48;100.00
141;BME280;65;48.778;9.160;2023-09-19T03:02:02;98241.44;;;16.57;100.00
141;BME280;65;48.778;9.160;2023-09-19T03:04:50;98237.75;;;16.69;100.00
141;BME280;65;48.778;9.160;2023-09-19T03:07:36;98244.22;;;16.76;100.00
141;BME280;65;48.778;9.160;2023-09-19T03:10:23;98241.19;;;16.81;100.00
141;BME280;65;48.778;9.160;2023-09-19T03:13:10;98241.34;;;16.89;100.00
141;BME280;65;48.778;9.160;2023-09-19T03:15:56;98242.50;;;16.96;100.00
141;BME280;65;48.778;9.160;2023-09-19T03:18:43;98240.28;;;17.11;100.00
141;BME280;65;48.778;9.160;2023-09-19T03:21:30;98245.78;;;17.09;100.00
141;BME280;65;48.778;9.160;2023-09-19T03:24:16;98245.34;;;17.04;100.00
141;BME280;65;48.778;9.160;2023-09-19T03:27:02;98244.94;;;17.08;100.00
141;BME280;65;48.778;9.160;2023-09-19T03:29:48;98244.09;;;17.08;100.00
141;BME280;65;48.778;9.160;2023-09-19T03:32:35;98246.59;;;17.00;100.00
141;BME280;65;48.778;9.160;2023-09-19T03:35:21;98243.38;;;17.06;100.00
141;BME280;65;48.778;9.160;2023-09-19T03:38:07;98250.25;;;16.99;100.00
141;BME280;65;48.778;9.160;2023-09-19T03:40:53;98244.91;;;16.99;100.00
141;BME280;65;48.778;9.160;2023-09-19T03:43:38;98242.94;;;17.01;100.00
141;BME280;65;48.778;9.160;2023-09-19T03:46:25;98237.16;;;16.96;100.00
141;BME280;65;48.778;9.160;2023-09-19T03:49:10;98245.72;;;16.90;100.00
141;BME280;65;48.778;9.160;2023-09-19T03:51:56;98237.00;;;16.88;100.00
141;BME280;65;48.778;9.160;2023-09-19T03:54:42;98239.66;;;16.88;100.00
141;BME280;65;48.778;9.160;2023-09-19T03:57:31;98232.22;;;16.91;100.00
141;BME280;65;48.778;9.160;2023-09-19T04:00:17;98237.44;;;16.93;100.00
141;BME280;65;48.778;9.160;2023-09-19T04:03:07;98247.13;;;16.94;100.00
141;BME280;65;48.778;9.160;2023-09-19T04:05:53;98244.88;;;16.89;100.00
141;BME280;65;48.778;9.160;2023-09-19T04:08:39;98246.97;;;16.86;100.00
141;BME280;65;48.778;9.160;2023-09-19T04:11:24;98244.97;;;16.78;100.00
141;BME280;65;48.778;9.160;2023-09-19T04:14:10;98244.50;;;16.73;100.00
141;BME280;65;48.778;9.160;2023-09-19T04:16:56;98250.09;;;16.70;100.00
141;BME280;65;48.778;9.160;2023-09-19T04:19:41;98256.03;;;16.73;100.00
141;BME280;65;48.778;9.160;2023-09-19T04:22:27;98257.47;;;16.78;100.00
141;BME280;65;48.778;9.160;2023-09-19T04:25:13;98257.34;;;16.79;100.00
141;BME280;65;48.778;9.160;2023-09-19T04:27:59;98262.81;;;16.78;100.00
141;BME280;65;48.778;9.160;2023-09-19T04:30:44;98259.75;;;16.82;100.00
141;BME280;65;48.778;9.160;2023-09-19T04:33:30;98262.41;;;16.82;100.00
141;BME280;65;48.778;9.160;2023-09-19T04:36:16;98261.72;;;16.90;100.00
141;BME280;65;48.778;9.160;2023-09-19T04:39:02;98260.94;;;16.99;100.00
141;BME280;65;48.778;9.160;2023-09-19T04:41:50;98258.38;;;16.97;100.00
141;BME280;65;48.778;9.160;2023-09-19T04:44:36;98264.31;;;17.01;100.00
141;BME280;65;48.778;9.160;2023-09-19T04:47:23;98268.13;;;17.08;100.00
141;BME280;65;48.778;9.160;2023-09-19T04:50:09;98271.91;;;17.05;100.00
141;BME280;65;48.778;9.160;2023-09-19T04:52:59;98285.34;;;16.94;100.00
141;BME280;65;48.778;9.160;2023-09-19T04:55:44;98282.97;;;16.91;100.00
141;BME280;65;48.778;9.160;2023-09-19T04:58:31;98292.28;;;16.76;100.00
141;BME280;65;48.778;9.160;2023-09-19T05:01:17;98298.19;;;16.59;100.00
141;BME280;65;48.778;9.160;2023-09-19T05:04:03;98304.06;;;16.32;100.00
141;BME280;65;48.778;9.160;2023-09-19T05:06:50;98306.13;;;16.07;100.00
141;BME280;65;48.778;9.160;2023-09-19T05:09:36;98311.28;;;15.88;100.00
141;BME280;65;48.778;9.160;2023-09-19T05:12:22;98309.41;;;15.79;100.00
141;BME280;65;48.778;9.160;2023-09-19T05:15:08;98310.38;;;15.78;100.00
141;BME280;65;48.778;9.160;2023-09-19T05:17:54;98296.19;;;15.77;100.00
141;BME280;65;48.778;9.160;2023-09-19T05:20:41;98310.63;;;15.75;100.00
141;BME280;65;48.778;9.160;2023-09-19T05:23:27;98314.00;;;15.77;100.00
141;BME280;65;48.778;9.160;2023-09-19T05:26:14;98321.41;;;15.73;100.00
141;BME280;65;48.778;9.160;2023-09-19T05:29:01;98316.31;;;15.70;100.00
141;BME280;65;48.778;9.160;2023-09-19T05:31:49;98319.38;;;15.66;100.00
141;BME280;65;48.778;9.160;2023-09-19T05:34:35;98325.41;;;15.68;100.00
141;BME280;65;48.778;9.160;2023-09-19T05:37:20;98338.63;;;15.69;100.00
141;BME280;65;48.778;9.160;2023-09-19T05:40:07;98353.63;;;15.70;100.00
141;BME280;65;48.778;9.160;2023-09-19T05:42:55;98341.78;;;15.63;100.00
141;BME280;65;48.778;9.160;2023-09-19T05:45:41;98357.97;;;15.60;100.00
141;BME280;65;48.778;9.160;2023-09-19T05:48:27;98370.81;;;15.55;100.00
141;BME280;65;48.778;9.160;2023-09-19T05:51:13;98369.38;;;15.29;100.00
141;BME280;65;48.778;9.160;2023-09-19T05:53:59;98372.19;;;15.16;100.00
141;BME280;65;48.778;9.160;2023-09-19T05:56:44;98379.06;;;15.07;100.00
141;BME280;65;48.778;9.160;2023-09-19T05:59:32;98387.78;;;15.09;100.00
141;BME280;65;48.778;9.160;2023-09-19T06:02:19;98382.81;;;15.05;100.00
141;BME280;65;48.778;9.160;2023-09-19T06:05:05;98380.66;;;15.10;100.00
141;BME280;65;48.778;9.160;2023-09-19T06:07:52;98382.22;;;15.12;100.00
141;BME280;65;48.778;9.160;2023-09-19T06:10:37;98388.63;;;15.10;100.00
141;BME280;65;48.778;9.160;2023-09-19T06:13:23;98398.56;;;15.19;100.00
141;BME280;65;48.778;9.160;2023-09-19T06:16:12;98401.09;;;15.21;100.00
141;BME280;65;48.778;9.160;2023-09-19T06:18:57;98404.13;;;15.16;100.00
141;BME280;65;48.778;9.160;2023-09-19T06:21:45;98403.34;;;15.03;100.00
141;BME280;65;48.778;9.160;2023-09-19T06:24:32;98402.19;;;15.07;100.00
141;BME280;65;48.778;9.160;2023-09-19T06:27:17;98401.69;;;15.13;100.00
141;BME280;65;48.778;9.160;2023-09-19T06:30:04;98396.38;;;15.13;100.00
141;BME280;65;48.778;9.160;2023-09-19T06:32:55;98395.91;;;15.19;100.00
141;BME280;65;48.778;9.160;2023-09-19T06:35:41;98398.16;;;15.01;100.00
141;BME280;65;48.778;9.160;2023-09-19T06:38:27;98395.91;;;15.19;100.00
141;BME280;65;48.778;9.160;2023-09-19T06:41:13;98403.88;;;15.30;100.00
141;BME280;65;48.778;9.160;2023-09-19T06:44:01;98403.63;;;15.22;100.00
141;BME280;65;48.778;9.160;2023-09-19T06:46:47;98409.94;;;15.21;100.00
141;BME280;65;48.778;9.160;2023-09-19T06:49:35;98414.03;;;15.47;100.00
141;BME280;65;48.778;9.160;2023-09-19T06:52:21;98414.56;;;15.64;100.00
141;BME280;65;48.778;9.160;2023-09-19T06:55:07;98413.69;;;15.74;100.00
141;BME280;65;48.778;9.160;2023-09-19T06:57:55;98415.81;;;16.03;100.00
141;BME280;65;48.778;9.160;2023-09-19T07:00:41;98414.47;;;16.20;100.00
141;BME280;65;48.778;9.160;2023-09-19T07:03:26;98429.97;;;16.47;100.00
141;BME280;65;48.778;9.160;2023-09-19T07:06:14;98428.38;;;16.55;100.00
141;BME280;65;48.778;9.160;2023-09-19T07:08:59;98439.63;;;16.59;100.00
141;BME280;65;48.778;9.160;2023-09-19T07:11:46;98436.34;;;16.66;100.00
141;BME280;65;48.778;9.160;2023-09-19T07:14:33;98444.56;;;16.63;100.00
141;BME280;65;48.778;9.160;2023-09-19T07:17:19;98451.59;;;16.64;100.00
141;BME280;65;48.778;9.160;2023-09-19T07:20:05;98454.38;;;16.74;100.00
141;BME280;65;48.778;9.160;2023-09-19T07:22:54;98457.88;;;16.86;100.00
141;BME280;65;48.778;9.160;2023-09-19T07:25:45;98457.66;;;16.78;100.00
141;BME280;65;48.778;9.160;2023-09-19T07:28:31;98452.78;;;16.83;100.00
141;BME280;65;48.778;9.160;2023-09-19T07:31:18;98452.59;;;16.95;100.00
141;BME280;65;48.778;9.160;2023-09-19T07:34:04;98449.72;;;17.08;100.00
141;BME280;65;48.778;9.160;2023-09-19T07:36:50;98450.50;;;17.20;100.00
141;BME280;65;48.778;9.160;2023-09-19T07:39:36;98453.56;;;17.15;100.00
141;BME280;65;48.778;9.160;2023-09-19T07:42:22;98465.84;;;17.27;100.00
141;BME280;65;48.778;9.160;2023-09-19T07:45:08;98466.56;;;17.29;100.00
141;BME280;65;48.778;9.160;2023-09-19T07:47:54;98466.25;;;17.23;100.00
141;BME280;65;48.778;9.160;2023-09-19T07:50:41;98473.25;;;17.35;100.00
141;BME280;65;48.778;9.160;2023-09-19T07:53:28;98460.06;;;17.22;100.00
141;BME280;65;48.778;9.160;2023-09-19T07:56:15;98466.84;;;17.26;100.00
141;BME280;65;48.778;9.160;2023-09-19T07:59:02;98468.84;;;17.34;100.00
141;BME280;65;48.778;9.160;2023-09-19T08:01:48;98480.84;;;17.39;100.00
141;BME280;65;48.778;9.160;2023-09-19T08:04:34;98479.97;;;17.60;100.00
141;BME280;65;48.778;9.160;2023-09-19T08:07:20;98484.94;;;17.44;100.00
141;BME280;65;48.778;9.160;2023-09-19T08:10:07;98487.84;;;17.61;100.00
141;BME280;65;48.778;9.160;2023-09-19T08:13:00;98487.66;;;17.53;100.00
141;BME280;65;48.778;9.160;2023-09-19T08:15:47;98489.06;;;17.78;100.00
141;BME280;65;48.778;9.160;2023-09-19T08:18:33;98490.19;;;17.76;100.00
141;BME280;65;48.778;9.160;2023-09-19T08:21:19;98492.78;;;17.66;100.00
141;BME280;65;48.778;9.160;2023-09-19T08:24:05;98489.06;;;17.78;100.00
141;BME280;65;48.778;9.160;2023-09-19T08:26:51;98493.25;;;18.01;100.00
141;BME280;65;48.778;9.160;2023-09-19T08:29:37;98499.94;;;18.36;100.00
141;BME280;65;48.778;9.160;2023-09-19T08:32:23;98488.97;;;18.49;100.00
141;BME280;65;48.778;9.160;2023-09-19T08:35:11;98485.94;;;18.92;100.00
141;BME280;65;48.778;9.160;2023-09-19T08:37:56;98496.63;;;19.31;100.00
141;BME280;65;48.778;9.160;2023-09-19T08:40:42;98493.78;;;19.42;100.00
141;BME280;65;48.778;9.160;2023-09-19T08:43:29;98496.59;;;19.97;100.00
141;BME280;65;48.778;9.160;2023-09-19T08:46:15;98501.88;;;21.14;88.51
141;BME280;65;48.778;9.160;2023-09-19T08:49:03;98498.22;;;21.93;78.99
141;BME280;65;48.778;9.160;2023-09-19T08:51:54;98496.94;;;22.39;73.82
141;BME280;65;48.778;9.160;2023-09-19T08:54:48;98505.69;;;23.08;73.16
141;BME280;65;48.778;9.160;2023-09-19T08:57:36;98501.13;;;22.34;72.38
141;BME280;65;48.778;9.160;2023-09-19T09:00:26;98490.00;;;21.95;77.27
141;BME280;65;48.778;9.160;2023-09-19T09:03:14;98502.94;;;21.22;79.71
141;BME280;65;48.778;9.160;2023-09-19T09:06:00;98501.28;;;20.67;80.16
141;BME280;65;48.778;9.160;2023-09-19T09:08:46;98502.19;;;20.40;84.98
141;BME280;65;48.778;9.160;2023-09-19T09:11:33;98502.44;;;20.37;85.70
141;BME280;65;48.778;9.160;2023-09-19T09:14:20;98504.16;;;20.38;81.06
141;BME280;65;48.778;9.160;2023-09-19T09:17:07;98505.94;;;20.47;83.32
141;BME280;65;48.778;9.160;2023-09-19T09:19:53;98511.88;;;20.51;79.39
141;BME280;65;48.778;9.160;2023-09-19T09:22:39;98517.41;;;20.67;76.65
141;BME280;65;48.778;9.160;2023-09-19T09:25:55;98515.16;;;20.63;72.44
141;BME280;65;48.778;9.160;2023-09-19T09:28:47;98520.16;;;20.58;71.19
141;BME280;65;48.778;9.160;2023-09-19T09:31:35;98518.34;;;20.21;68.97
141;BME280;65;48.778;9.160;2023-09-19T09:34:21;98508.34;;;20.13;68.79
141;BME280;65;48.778;9.160;2023-09-19T09:37:06;98514.78;;;20.30;70.67
141;BME280;65;48.778;9.160;2023-09-19T09:40:01;98512.78;;;20.60;68.90
141;BME280;65;48.778;9.160;2023-09-19T09:43:25;98513.25;;;20.55;65.20
141;BME280;65;48.778;9.160;2023-09-19T09:46:17;98519.06;;;20.50;66.21
141;BME280;65;48.778;9.160;2023-09-19T09:49:10;98516.16;;;20.44;65.09
141;BME280;65;48.778;9.160;2023-09-19T09:52:12;98515.88;;;20.65;67.02
141;BME280;65;48.778;9.160;2023-09-19T09:55:04;98513.00;;;20.48;65.28
141;BME280;65;48.778;9.160;2023-09-19T09:58:16;98509.19;;;20.51;62.60
141;BME280;65;48.778;9.160;2023-09-19T10:01:04;98511.31;;;20.47;65.79
141;BME280;65;48.778;9.160;2023-09-19T10:04:00;98510.78;;;20.62;61.74
141;BME280;65;48.778;9.160;2023-09-19T10:06:46;98505.81;;;21.02;65.93
141;BME280;65;48.778;9.160;2023-09-19T10:09:47;98505.38;;;21.76;60.59
141;BME280;65;48.778;9.160;2023-09-19T10:12:34;98507.22;;;22.02;59.77
141;BME280;65;48.778;9.160;2023-09-19T10:15:26;98507.88;;;21.70;61.13
141;BME280;65;48.778;9.160;2023-09-19T10:18:14;98511.63;;;21.15;59.98
141;BME280;65;48.778;9.160;2023-09-19T10:21:04;98510.88;;;21.05;60.21
141;BME280;65;48.778;9.160;2023-09-19T10:23:52;98507.03;;;21.08;59.21
141;BME280;65;48.778;9.160;2023-09-19T10:26:42;98505.03;;;21.28;62.20
141;BME280;65;48.778;9.160;2023-09-19T10:29:29;98495.53;;;20.80;59.03
141;BME280;65;48.778;9.160;2023-09-19T10:32:18;98493.69;;;20.63;60.78
141;BME280;65;48.778;9.160;2023-09-19T10:35:05;98499.16;;;20.89;62.92
141;BME280;65;48.778;9.160;2023-09-19T10:37:54;98497.00;;;20.92;61.40
141;BME280;65;48.778;9.160;2023-09-19T10:40:42;98503.31;;;20.83;63.82
141;BME280;65;48.778;9.160;2023-09-19T10:43:31;98493.28;;;21.29;57.20
141;BME280;65;48.778;9.160;2023-09-19T10:46:19;98501.81;;;22.02;55.81
141;BME280;65;48.778;9.160;2023-09-19T10:49:05;98502.00;;;23.25;52.21
141;BME280;65;48.778;9.160;2023-09-19T10:51:57;98498.00;;;25.25;44.89
141;BME280;65;48.778;9.160;2023-09-19T10:54:50;98493.09;;;26.76;42.31
141;BME280;65;48.778;9.160;2023-09-19T10:57:44;98508.06;;;26.93;40.77
141;BME280;65;48.778;9.160;2023-09-19T11:00:50;98493.00;;;26.33;41.24
141;BME280;65;48.778;9.160;2023-09-19T11:03:36;98499.19;;;25.45;43.90
141;BME280;65;48.778;9.160;2023-09-19T11:06:28;98501.47;;;23.46;47.86
141;BME280;65;48.778;9.160;2023-09-19T11:09:14;98498.44;;;22.00;54.48
141;BME280;65;48.778;9.160;2023-09-19T11:12:00;98506.50;;;22.92;51.09
141;BME280;65;48.778;9.160;2023-09-19T11:14:46;98501.84;;;25.08;46.86
141;BME280;65;48.778;9.160;2023-09-19T11:20:21;98480.94;;;26.72;40.85
141;BME280;65;48.778;9.160;2023-09-19T11:25:58;98483.59;;;29.55;34.37
141;BME280;65;48.778;9.160;2023-09-19T11:28:44;98473.28;;;29.83;33.90
141;BME280;65;48.778;9.160;2023-09-19T11:31:44;98464.50;;;29.35;32.90
141;BME280;65;48.778;9.160;2023-09-19T11:40:08;98474.75;;;29.20;31.84
141;BME280;65;48.778;9.160;2023-09-19T11:42:58;98472.91;;;28.46;34.05
141;BME280;65;48.778;9.160;2023-09-19T11:48:43;98461.31;;;28.24;34.15
141;BME280;65;48.778;9.160;2023-09-19T11:51:39;98471.00;;;29.27;32.06
141;BME280;65;48.778;9.160;2023-09-19T11:54:26;98467.38;;;29.93;31.87
141;BME280;65;48.778;9.160;2023-09-19T11:57:20;98457.91;;;30.73;30.29
141;BME280;65;48.778;9.160;2023-09-19T12:00:07;98465.91;;;29.97;31.53
141;BME280;65;48.778;9.160;2023-09-19T12:03:08;98448.44;;;30.31;31.32
141;BME280;65;48.778;9.160;2023-09-19T12:05:58;98458.72;;;30.29;29.76
141;BME280;65;48.778;9.160;2023-09-19T12:08:44;98451.25;;;30.49;29.93
141;BME280;65;48.778;9.160;2023-09-19T12:11:32;98443.97;;;30.43;30.47
141;BME280;65;48.778;9.160;2023-09-19T12:14:22;98443.66;;;30.58;30.13
141;BME280;65;48.778;9.160;2023-09-19T12:17:10;98446.50;;;30.83;31.80
141;BME280;65;48.778;9.160;2023-09-19T12:19:58;98435.50;;;30.65;31.00
141;BME280;65;48.778;9.160;2023-09-19T12:22:45;98447.16;;;30.78;30.18
141;BME280;65;48.778;9.160;2023-09-19T12:25:44;98439.72;;;28.77;33.18
141;BME280;65;48.778;9.160;2023-09-19T12:28:41;98433.34;;;27.12;36.39
141;BME280;65;48.778;9.160;2023-09-19T12:31:27;98425.38;;;25.14;40.68
141;BME280;65;48.778;9.160;2023-09-19T12:34:25;98421.47;;;27.41;36.78
141;BME280;65;48.778;9.160;2023-09-19T12:37:16;98424.28;;;29.37;32.91
141;BME280;65;48.778;9.160;2023-09-19T12:40:09;98410.97;;;30.51;30.31
141;BME280;65;48.778;9.160;2023-09-19T12:43:08;98410.13;;;30.13;30.95
141;BME280;65;48.778;9.160;2023-09-19T12:45:54;98418.75;;;28.51;34.78
141;BME280;65;48.778;9.160;2023-09-19T12:48:40;98409.56;;;28.72;33.46
141;BME280;65;48.778;9.160;2023-09-19T12:51:35;98410.69;;;27.76;34.21
141;BME280;65;48.778;9.160;2023-09-19T12:54:21;98401.22;;;27.71;34.65
141;BME280;65;48.778;9.160;2023-09-19T12:57:07;98414.69;;;28.27;34.42
141;BME280;65;48.778;9.160;2023-09-19T12:59:53;98407.41;;;28.34;34.05
141;BME280;65;48.778;9.160;2023-09-19T13:06:35;98400.78;;;27.68;36.08
141;BME280;65;48.778;9.160;2023-09-19T13:09:24;98395.00;;;27.50;36.52
141;BME280;65;48.778;9.160;2023-09-19T13:12:38;98399.09;;;25.96;39.87
141;BME280;65;48.778;9.160;2023-09-19T13:15:24;98410.97;;;24.53;41.43
141;BME280;65;48.778;9.160;2023-09-19T13:18:14;98409.06;;;24.39;42.29
141;BME280;65;48.778;9.160;2023-09-19T13:21:08;98407.72;;;24.35;41.42
141;BME280;65;48.778;9.160;2023-09-19T13:24:20;98394.28;;;27.06;37.17
141;BME280;65;48.778;9.160;2023-09-19T13:27:08;98397.16;;;27.26;36.79
141;BME280;65;48.778;9.160;2023-09-19T13:29:54;98391.94;;;27.94;37.04
141;BME280;65;48.778;9.160;2023-09-19T13:32:40;98394.75;;;28.20;34.90
141;BME280;65;48.778;9.160;2023-09-19T13:35:26;98398.16;;;27.53;35.58
141;BME280;65;48.778;9.160;2023-09-19T13:38:12;98389.91;;;27.33;36.01
141;BME280;65;48.778;9.160;2023-09-19T13:40:58;98391.34;;;27.98;37.13
141;BME280;65;48.778;9.160;2023-09-19T13:43:46;98375.97;;;27.43;37.03
141;BME280;65;48.778;9.160;2023-09-19T13:46:34;98380.78;;;26.92;37.42
141;BME280;65;48.778;9.160;2023-09-19T13:49:20;98377.38;;;25.45;40.13
141;BME280;65;48.778;9.160;2023-09-19T13:52:06;98377.94;;;24.88;41.07
141;BME280;65;48.778;9.160;2023-09-19T13:54:53;98365.41;;;25.25;40.83
141;BME280;65;48.778;9.160;2023-09-19T13:57:39;98374.41;;;26.21;38.88
141;BME280;65;48.778;9.160;2023-09-19T14:00:25;98375.56;;;26.69;37.47
141;BME280;65;48.778;9.160;2023-09-19T14:03:11;98377.28;;;26.55;37.24
141;BME280;65;48.778;9.160;2023-09-19T14:05:57;98373.41;;;26.86;36.83
141;BME280;65;48.778;9.160;2023-09-19T14:08:44;98369.53;;;25.50;39.48
141;BME280;65;48.778;9.160;2023-09-19T14:11:33;98371.63;;;24.73;41.25
141;BME280;65;48.778;9.160;2023-09-19T14:14:19;98370.09;;;24.33;41.30
141;BME280;65;48.778;9.160;2023-09-19T14:17:05;98370.84;;;24.42;42.44
141;BME280;65;48.778;9.160;2023-09-19T14:19:52;98370.63;;;24.20;41.91
141;BME280;65;48.778;9.160;2023-09-19T14:22:38;98371.22;;;24.39;42.14
141;BME280;65;48.778;9.160;2023-09-19T14:25:24;98366.63;;;24.62;42.29
141;BME280;65;48.778;9.160;2023-09-19T14:28:10;98348.66;;;24.92;41.54
141;BME280;65;48.778;9.160;2023-09-19T14:30:56;98360.72;;;25.04;39.30
141;BME280;65;48.778;9.160;2023-09-19T14:33:42;98352.19;;;24.92;40.51
141;BME280;65;48.778;9.160;2023-09-19T14:36:29;98362.66;;;24.27;43.15
141;BME280;65;48.778;9.160;2023-09-19T14:39:15;98357.03;;;24.06;44.19
141;BME280;65;48.778;9.160;2023-09-19T14:42:02;98347.53;;;24.64;40.17
141;BME280;65;48.778;9.160;2023-09-19T14:44:48;98338.81;;;25.43;39.21
141;BME280;65;48.778;9.160;2023-09-19T14:47:35;98334.91;;;25.46;38.22
141;BME280;65;48.778;9.160;2023-09-19T14:50:21;98331.19;;;25.47;38.54
141;BME280;65;48.778;9.160;2023-09-19T14:53:07;98344.81;;;25.68;37.63
141;BME280;65;48.778;9.160;2023-09-19T14:55:56;98333.50;;;25.06;39.14
141;BME280;65;48.778;9.160;2023-09-19T14:58:41;98339.09;;;24.44;42.19
141;BME280;65;48.778;9.160;2023-09-19T15:01:28;98337.78;;;24.40;42.67
141;BME280;65;48.778;9.160;2023-09-19T15:04:13;98338.81;;;24.39;40.32
141;BME280;65;48.778;9.160;2023-09-19T15:06:59;98347.25;;;24.36;42.01
141;BME280;65;48.778;9.160;2023-09-19T15:09:45;98339.16;;;23.74;46.21
141;BME280;65;48.778;9.160;2023-09-19T15:12:31;98346.09;;;23.68;42.45
141;BME280;65;48.778;9.160;2023-09-19T15:15:18;98350.72;;;23.90;43.00
141;BME280;65;48.778;9.160;2023-09-19T15:18:04;98345.72;;;23.79;41.60
141;BME280;65;48.778;9.160;2023-09-19T15:20:50;98348.41;;;23.79;41.77
141;BME280;65;48.778;9.160;2023-09-19T15:23:37;98347.97;;;23.59;42.36
141;BME280;65;48.778;9.160;2023-09-19T15:26:23;98342.72;;;23.19;43.17
141;BME280;65;48.778;9.160;2023-09-19T15:29:11;98331.06;;;23.26;42.42
141;BME280;65;48.778;9.160;2023-09-19T15:31:56;98337.22;;;23.43;43.40
141;BME280;65;48.778;9.160;2023-09-19T15:34:44;98334.88;;;23.40;42.20
141;BME280;65;48.778;9.160;2023-09-19T15:37:29;98326.50;;;23.27;43.11
141;BME280;65;48.778;9.160;2023-09-19T15:40:15;98325.19;;;23.07;44.39
141;BME280;65;48.778;9.160;2023-09-19T15:43:01;98324.53;;;23.04;44.62
141;BME280;65;48.778;9.160;2023-09-19T15:45:47;98311.75;;;22.90;44.56
141;BME280;65;48.778;9.160;2023-09-19T15:48:33;98312.78;;;22.73;45.89
141;BME280;65;48.778;9.160;2023-09-19T15:51:19;98315.13;;;22.68;46.88
141;BME280;65;48.778;9.160;2023-09-19T15:54:13;98312.13;;;22.63;45.90
141;BME280;65;48.778;9.160;2023-09-19T15:56:59;98320.72;;;22.58;47.22
141;BME280;65;48.778;9.160;2023-09-19T15:59:45;98309.94;;;22.58;48.37
141;BME280;65;48.778;9.160;2023-09-19T16:02:32;98306.88;;;22.53;48.22
141;BME280;65;48.778;9.160;2023-09-19T16:05:17;98314.63;;;22.48;47.44
141;BME280;65;48.778;9.160;2023-09-19T16:08:04;98314.63;;;22.48;46.57
141;BME280;65;48.778;9.160;2023-09-19T16:10:50;98317.16;;;22.33;46.70
141;BME280;65;48.778;9.160;2023-09-19T16:13:38;98311.09;;;22.31;48.79
141;BME280;65;48.778;9.160;2023-09-19T16:16:26;98314.13;;;22.28;47.67